createdAt,value
2019-06-27T00:00:45.015Z,18.50
2019-06-27T00:03:13.398Z,18.20
2019-06-27T00:05:41.808Z,18.20
2019-06-27T00:08:10.315Z,18.20
2019-06-27T00:13:06.791Z,18.10
2019-06-27T00:15:35.279Z,18.00
2019-06-27T00:18:03.686Z,18.00
2019-06-27T00:20:32.104Z,17.80
2019-06-27T00:25:28.610Z,17.70
2019-06-27T00:27:57.022Z,17.60
2019-06-27T00:30:26.996Z,17.70
2019-06-27T00:32:55.390Z,17.70
2019-06-27T00:35:23.818Z,17.70
2019-06-27T00:37:52.237Z,17.70
2019-06-27T00:40:20.634Z,17.60
2019-06-27T00:42:49.046Z,17.60
2019-06-27T00:45:18.321Z,17.60
2019-06-27T00:47:46.723Z,17.50
2019-06-27T00:50:15.299Z,17.60
2019-06-27T00:52:43.703Z,17.50
2019-06-27T00:57:41.160Z,17.30
2019-06-27T01:00:09.916Z,17.40
2019-06-27T01:02:38.319Z,17.30
2019-06-27T01:05:07.288Z,17.20
2019-06-27T01:07:35.693Z,17.20
2019-06-27T01:10:05.549Z,17.10
2019-06-27T01:12:34.006Z,17.10
2019-06-27T01:15:02.479Z,16.90
2019-06-27T01:17:30.995Z,16.90
2019-06-27T01:19:59.481Z,17.00
2019-06-27T01:22:27.883Z,17.10
2019-06-27T01:24:56.286Z,17.00
2019-06-27T01:27:30.313Z,17.00
2019-06-27T01:29:57.586Z,16.90
2019-06-27T01:32:25.987Z,16.80
2019-06-27T01:34:54.401Z,16.80
2019-06-27T01:37:22.797Z,16.80
2019-06-27T01:39:51.202Z,16.70
2019-06-27T01:42:19.627Z,16.70
2019-06-27T01:44:49.692Z,16.70
2019-06-27T01:47:18.108Z,16.60
2019-06-27T01:49:46.535Z,16.70
2019-06-27T01:52:14.938Z,16.70
2019-06-27T01:54:43.418Z,16.90
2019-06-27T01:57:11.847Z,16.80
2019-06-27T01:59:40.266Z,16.70
2019-06-27T02:02:08.742Z,16.80
2019-06-27T02:04:37.349Z,16.90
2019-06-27T02:07:05.909Z,17.10
2019-06-27T02:09:34.344Z,17.20
2019-06-27T02:12:02.767Z,17.20
2019-06-27T02:14:31.167Z,17.10
2019-06-27T02:16:59.574Z,17.10
2019-06-27T02:19:28.054Z,17.10
2019-06-27T02:21:56.504Z,17.20
2019-06-27T02:24:24.982Z,17.20
2019-06-27T02:26:53.422Z,17.20
2019-06-27T02:29:21.895Z,17.10
2019-06-27T02:31:50.312Z,17.10
2019-06-27T02:34:18.728Z,17.00
2019-06-27T02:36:47.177Z,17.10
2019-06-27T02:39:15.566Z,17.00
2019-06-27T02:41:44.040Z,16.90
2019-06-27T02:44:12.504Z,17.00
2019-06-27T02:46:41.115Z,17.00
2019-06-27T02:49:09.566Z,17.00
2019-06-27T02:51:38.086Z,17.00
2019-06-27T02:54:06.519Z,16.90
2019-06-27T02:56:34.899Z,16.90
2019-06-27T02:59:03.379Z,16.90
2019-06-27T03:01:31.813Z,16.80
2019-06-27T03:04:00.222Z,16.70
2019-06-27T03:06:28.630Z,16.80
2019-06-27T03:08:57.099Z,16.90
2019-06-27T03:11:25.510Z,17.00
2019-06-27T03:13:53.935Z,17.00
2019-06-27T03:16:22.334Z,17.10
2019-06-27T03:18:50.766Z,17.10
2019-06-27T03:21:19.240Z,17.10
2019-06-27T03:23:47.704Z,17.20
2019-06-27T03:26:16.210Z,17.20
2019-06-27T03:28:53.114Z,17.20
2019-06-27T03:31:15.020Z,17.20
2019-06-27T03:33:43.486Z,17.30
2019-06-27T03:36:11.889Z,17.40
2019-06-27T03:38:40.299Z,17.30
2019-06-27T03:41:08.715Z,17.30
2019-06-27T03:43:37.194Z,17.40
2019-06-27T03:46:05.604Z,17.50
2019-06-27T03:48:34.052Z,17.50
2019-06-27T03:51:02.437Z,17.60
2019-06-27T03:53:30.835Z,17.60
2019-06-27T03:55:59.256Z,17.50
2019-06-27T03:58:27.659Z,17.50
2019-06-27T04:00:56.132Z,17.60
2019-06-27T04:03:24.787Z,17.60
2019-06-27T04:05:53.187Z,17.70
2019-06-27T04:08:21.588Z,17.60
2019-06-27T04:10:50.347Z,17.60
2019-06-27T04:13:18.825Z,17.80
2019-06-27T04:15:47.291Z,17.90
2019-06-27T04:18:15.703Z,17.80
2019-06-27T04:20:44.179Z,17.90
2019-06-27T04:23:12.585Z,17.90
2019-06-27T04:25:40.995Z,18.00
2019-06-27T04:28:09.528Z,18.00
2019-06-27T04:30:37.930Z,18.10
2019-06-27T04:33:06.383Z,18.20
2019-06-27T04:35:34.779Z,18.10
2019-06-27T04:38:03.174Z,18.00
2019-06-27T04:40:31.591Z,18.00
2019-06-27T04:43:05.109Z,17.80
2019-06-27T04:45:30.160Z,17.90
2019-06-27T04:47:58.591Z,17.90
2019-06-27T04:50:27.028Z,18.00
2019-06-27T04:52:55.427Z,18.00
2019-06-27T04:55:23.843Z,18.10
2019-06-27T04:57:52.252Z,18.10
2019-06-27T05:00:26.313Z,18.20
2019-06-27T05:02:54.796Z,18.00
2019-06-27T05:05:23.194Z,18.30
2019-06-27T05:07:51.601Z,18.40
2019-06-27T05:10:20.027Z,18.60
2019-06-27T05:12:48.430Z,18.50
2019-06-27T05:15:17.104Z,18.30
2019-06-27T05:17:45.531Z,18.40
2019-06-27T05:20:14.172Z,18.30
2019-06-27T05:22:42.570Z,18.50
2019-06-27T05:25:10.991Z,18.60
2019-06-27T05:27:39.407Z,18.80
2019-06-27T05:30:10.572Z,18.80
2019-06-27T05:32:39.309Z,18.80
2019-06-27T05:35:07.887Z,18.80
2019-06-27T05:37:36.290Z,18.70
2019-06-27T05:40:08.782Z,18.60
2019-06-27T05:42:37.183Z,18.70
2019-06-27T05:45:06.627Z,18.70
2019-06-27T05:47:35.034Z,18.60
2019-06-27T05:50:07.587Z,18.60
2019-06-27T05:52:35.986Z,18.60
2019-06-27T05:55:05.999Z,18.60
2019-06-27T05:57:34.871Z,18.40
2019-06-27T06:00:05.423Z,18.40
2019-06-27T06:02:33.910Z,18.20
2019-06-27T06:05:02.323Z,18.20
2019-06-27T06:07:31.099Z,18.40
2019-06-27T06:09:59.515Z,18.40
2019-06-27T06:12:28.079Z,18.40
2019-06-27T06:14:56.484Z,18.40
2019-06-27T06:17:24.882Z,18.40
2019-06-27T06:19:53.299Z,18.50
2019-06-27T06:22:21.712Z,18.50
2019-06-27T06:24:50.103Z,18.80
2019-06-27T06:27:18.555Z,18.90
2019-06-27T06:29:46.986Z,19.20
2019-06-27T06:32:15.432Z,19.40
2019-06-27T06:34:43.916Z,19.40
2019-06-27T06:37:12.331Z,19.50
2019-06-27T06:39:40.751Z,19.70
2019-06-27T06:42:09.176Z,19.80
2019-06-27T06:44:37.657Z,19.80
2019-06-27T06:47:06.063Z,20.10
2019-06-27T06:49:34.473Z,19.70
2019-06-27T06:52:02.906Z,19.40
2019-06-27T06:54:31.319Z,19.50
2019-06-27T06:56:59.783Z,19.60
2019-06-27T06:59:28.193Z,19.60
2019-06-27T07:01:56.931Z,19.60
2019-06-27T07:04:25.333Z,19.40
2019-06-27T07:06:53.726Z,19.40
2019-06-27T07:09:22.151Z,19.60
2019-06-27T07:11:50.591Z,19.80
2019-06-27T07:14:19.033Z,20.00
2019-06-27T07:16:47.527Z,20.00
2019-06-27T07:19:15.967Z,19.90
2019-06-27T07:21:44.375Z,19.90
2019-06-27T07:24:12.787Z,19.70
2019-06-27T07:26:41.496Z,19.50
2019-06-27T07:29:09.913Z,19.90
2019-06-27T07:31:38.298Z,20.40
2019-06-27T07:34:06.703Z,20.40
2019-06-27T07:36:35.120Z,20.60
2019-06-27T07:39:05.072Z,20.60
2019-06-27T07:41:33.967Z,20.70
2019-06-27T07:44:02.375Z,21.10
2019-06-27T07:46:30.812Z,21.00
2019-06-27T07:48:59.270Z,20.90
2019-06-27T07:51:27.702Z,21.20
2019-06-27T07:53:56.106Z,21.30
2019-06-27T07:56:24.566Z,21.30
2019-06-27T07:58:52.983Z,21.60
2019-06-27T08:01:34.360Z,21.80
2019-06-27T08:03:51.515Z,21.80
2019-06-27T08:06:19.943Z,22.30
2019-06-27T08:08:48.344Z,23.10
2019-06-27T08:11:16.743Z,25.70
2019-06-27T08:16:13.350Z,24.30
2019-06-27T08:18:41.753Z,23.80
2019-06-27T08:21:10.631Z,23.30
2019-06-27T08:23:41.922Z,22.90
2019-06-27T08:26:09.294Z,22.60
2019-06-27T08:28:37.840Z,22.90
2019-06-27T08:33:34.548Z,22.50
2019-06-27T08:36:03.022Z,22.60
2019-06-27T08:38:31.426Z,22.60
2019-06-27T08:40:59.836Z,22.80
2019-06-27T08:43:28.249Z,22.60
2019-06-27T08:45:56.655Z,22.80
2019-06-27T08:48:25.055Z,22.90
2019-06-27T08:50:53.476Z,22.80
2019-06-27T08:53:21.901Z,22.90
2019-06-27T08:55:50.366Z,23.20
2019-06-27T08:58:18.775Z,22.90
2019-06-27T09:00:47.259Z,23.10
2019-06-27T09:03:15.658Z,23.20
2019-06-27T09:05:44.087Z,23.20
2019-06-27T09:08:12.487Z,23.30
2019-06-27T09:10:40.892Z,23.20
2019-06-27T09:13:09.303Z,23.20
2019-06-27T09:15:37.703Z,23.20
2019-06-27T09:18:06.103Z,23.40
2019-06-27T09:20:34.638Z,23.70
2019-06-27T09:23:03.101Z,23.90
2019-06-27T09:25:31.544Z,24.00
2019-06-27T09:28:00.083Z,24.50
2019-06-27T09:30:28.625Z,24.80
2019-06-27T09:32:57.037Z,25.30
2019-06-27T09:35:25.440Z,25.10
2019-06-27T09:37:53.846Z,25.70
2019-06-27T09:40:23.808Z,25.50
2019-06-27T09:42:52.199Z,25.50
2019-06-27T09:45:21.360Z,26.30
2019-06-27T09:47:49.758Z,27.20
2019-06-27T09:50:21.485Z,27.70
2019-06-27T09:52:48.980Z,27.60
2019-06-27T09:55:19.097Z,33.10
2019-06-27T09:57:47.551Z,33.80
2019-06-27T10:00:16.500Z,35.10
2019-06-27T10:02:44.908Z,39.20
2019-06-27T10:05:14.048Z,40.40
2019-06-27T10:07:42.448Z,40.00
2019-06-27T10:10:11.399Z,40.30
2019-06-27T10:12:42.927Z,39.10
2019-06-27T10:15:10.392Z,39.80
2019-06-27T10:17:38.792Z,40.50
2019-06-27T10:20:08.354Z,39.50
2019-06-27T10:22:37.161Z,41.00
2019-06-27T10:25:08.757Z,41.20
2019-06-27T10:27:37.180Z,41.90
2019-06-27T10:30:07.053Z,41.10
2019-06-27T10:32:35.461Z,41.20
2019-06-27T10:37:33.227Z,40.70
2019-06-27T10:40:01.671Z,40.60
2019-06-27T10:42:30.732Z,40.90
2019-06-27T10:44:59.138Z,39.60
2019-06-27T10:47:27.555Z,37.70
2019-06-27T10:49:55.950Z,40.30
2019-06-27T10:52:24.365Z,40.60
2019-06-27T10:54:52.844Z,39.80
2019-06-27T10:57:21.247Z,38.60
2019-06-27T10:59:49.693Z,39.70
2019-06-27T11:02:18.101Z,38.20
2019-06-27T11:04:46.503Z,38.40
2019-06-27T11:07:14.925Z,38.30
2019-06-27T11:09:43.316Z,36.10
2019-06-27T11:12:11.710Z,34.70
2019-06-27T11:14:40.128Z,33.50
2019-06-27T11:17:08.529Z,33.10
2019-06-27T11:19:51.496Z,32.30
2019-06-27T11:22:07.295Z,31.50
2019-06-27T11:24:35.715Z,30.30
2019-06-27T11:27:04.174Z,29.40
2019-06-27T11:29:32.594Z,29.20
2019-06-27T11:32:01.121Z,29.50
2019-06-27T11:34:29.562Z,29.70
2019-06-27T11:36:57.971Z,29.80
2019-06-27T11:39:26.386Z,29.70
2019-06-27T11:41:54.783Z,29.90
2019-06-27T11:44:23.178Z,30.80
2019-06-27T11:46:51.701Z,30.40
2019-06-27T11:49:20.090Z,30.90
2019-06-27T11:51:48.500Z,31.10
2019-06-27T11:54:16.958Z,30.30
2019-06-27T11:56:45.367Z,30.20
2019-06-27T11:59:13.766Z,30.30
2019-06-27T12:01:42.349Z,30.10
2019-06-27T12:04:10.754Z,30.70
2019-06-27T12:06:39.162Z,30.90
2019-06-27T12:09:07.592Z,31.50
2019-06-27T12:11:35.991Z,30.70
2019-06-27T12:14:04.442Z,30.60
2019-06-27T12:16:32.883Z,31.30
2019-06-27T12:19:01.290Z,30.70
2019-06-27T12:21:29.691Z,30.70
2019-06-27T12:23:58.116Z,30.50
2019-06-27T12:26:26.618Z,31.10
2019-06-27T12:28:55.018Z,31.70
2019-06-27T12:31:23.429Z,31.40
2019-06-27T12:34:05.459Z,30.80
2019-06-27T12:36:21.955Z,31.10
2019-06-27T12:38:50.362Z,31.40
2019-06-27T12:41:18.817Z,31.50
2019-06-27T12:43:47.219Z,31.70
2019-06-27T12:46:15.631Z,31.30
2019-06-27T12:48:44.035Z,31.10
2019-06-27T12:51:12.437Z,30.50
2019-06-27T12:53:40.871Z,30.90
2019-06-27T12:56:09.347Z,30.90
2019-06-27T12:58:37.758Z,30.50
2019-06-27T13:01:06.192Z,30.70
2019-06-27T13:03:34.619Z,30.10
2019-06-27T13:06:03.020Z,30.40
2019-06-27T13:08:31.735Z,31.00
2019-06-27T13:11:00.939Z,31.40
2019-06-27T13:13:34.561Z,31.00
2019-06-27T13:16:06.722Z,31.20
2019-06-27T13:18:36.095Z,31.40
2019-06-27T13:21:04.538Z,31.70
2019-06-27T13:23:32.998Z,31.60
2019-06-27T13:26:01.427Z,31.20
2019-06-27T13:28:29.899Z,30.70
2019-06-27T13:30:58.320Z,30.40
2019-06-27T13:33:26.722Z,30.40
2019-06-27T13:35:55.128Z,30.70
2019-06-27T13:38:23.875Z,30.50
2019-06-27T13:40:52.278Z,30.70
2019-06-27T13:43:20.687Z,30.30
2019-06-27T13:45:49.168Z,30.80
2019-06-27T13:48:17.610Z,31.20
2019-06-27T13:50:46.019Z,31.00
2019-06-27T13:53:14.490Z,30.80
2019-06-27T13:55:42.905Z,30.70
2019-06-27T13:58:11.311Z,30.80
2019-06-27T14:00:44.772Z,30.80
2019-06-27T14:03:13.178Z,30.90
2019-06-27T14:05:41.810Z,31.00
2019-06-27T14:08:10.492Z,31.20
2019-06-27T14:10:38.915Z,31.10
2019-06-27T14:13:07.314Z,31.10
2019-06-27T14:15:35.796Z,30.70
2019-06-27T14:18:04.262Z,31.00
2019-06-27T14:20:32.670Z,31.20
2019-06-27T14:23:01.087Z,30.90
2019-06-27T14:25:29.489Z,30.60
2019-06-27T14:27:57.933Z,30.30
2019-06-27T14:30:27.046Z,30.50
2019-06-27T14:32:55.446Z,30.80
2019-06-27T14:35:23.855Z,30.30
2019-06-27T14:37:52.427Z,30.50
2019-06-27T14:40:21.268Z,30.50
2019-06-27T14:42:49.858Z,30.70
2019-06-27T14:45:18.527Z,30.80
2019-06-27T14:47:46.960Z,30.50
2019-06-27T14:50:15.447Z,30.40
2019-06-27T14:52:43.906Z,30.10
2019-06-27T14:55:12.613Z,29.90
2019-06-27T14:57:41.113Z,30.00
2019-06-27T15:00:10.615Z,30.20
2019-06-27T15:02:39.087Z,30.10
2019-06-27T15:05:08.762Z,30.10
2019-06-27T15:07:37.247Z,30.20
2019-06-27T15:10:06.812Z,30.00
2019-06-27T15:12:35.944Z,29.80
2019-06-27T15:15:05.151Z,29.90
2019-06-27T15:17:33.555Z,29.90
2019-06-27T15:20:02.342Z,30.00
2019-06-27T15:22:30.811Z,30.10
2019-06-27T15:24:59.222Z,29.90
2019-06-27T15:27:27.623Z,29.80
2019-06-27T15:29:56.043Z,29.30
2019-06-27T15:32:24.447Z,29.40
2019-06-27T15:34:52.867Z,29.60
2019-06-27T15:37:21.280Z,29.60
2019-06-27T15:39:49.683Z,29.30
2019-06-27T15:42:18.099Z,28.80
2019-06-27T15:44:46.511Z,29.00
2019-06-27T15:47:14.989Z,29.00
2019-06-27T15:49:43.387Z,29.10
2019-06-27T15:52:11.811Z,29.10
2019-06-27T15:54:40.232Z,29.20
2019-06-27T15:57:08.627Z,29.10
2019-06-27T15:59:37.070Z,28.80
2019-06-27T16:02:05.517Z,29.00
2019-06-27T16:04:34.585Z,28.50
2019-06-27T16:07:03.398Z,28.50
2019-06-27T16:09:31.782Z,28.40
2019-06-27T16:12:00.221Z,28.50
2019-06-27T16:14:28.943Z,28.60
2019-06-27T16:16:57.347Z,28.50
2019-06-27T16:19:25.759Z,28.50
2019-06-27T16:21:54.295Z,28.60
2019-06-27T16:24:22.709Z,28.10
2019-06-27T16:26:51.124Z,27.80
2019-06-27T16:29:19.536Z,27.60
2019-06-27T16:31:47.993Z,27.70
2019-06-27T16:34:16.423Z,27.70
2019-06-27T16:36:44.823Z,27.50
2019-06-27T16:39:13.227Z,27.40
2019-06-27T16:41:41.659Z,27.50
2019-06-27T16:44:10.051Z,27.60
2019-06-27T16:46:38.527Z,27.30
2019-06-27T16:49:06.947Z,27.30
2019-06-27T16:51:35.346Z,27.40
2019-06-27T16:54:03.747Z,27.20
2019-06-27T16:56:32.167Z,26.90
2019-06-27T16:59:00.574Z,26.80
2019-06-27T17:01:28.979Z,26.90
2019-06-27T17:03:57.399Z,27.00
2019-06-27T17:06:40.826Z,26.90
2019-06-27T17:08:55.936Z,27.00
2019-06-27T17:11:24.367Z,27.10
2019-06-27T17:13:52.770Z,26.80
2019-06-27T17:16:22.307Z,26.70
2019-06-27T17:18:50.844Z,26.60
2019-06-27T17:21:19.247Z,26.50
2019-06-27T17:23:47.647Z,26.50
2019-06-27T17:26:16.075Z,26.30
2019-06-27T17:28:44.470Z,26.20
2019-06-27T17:31:12.951Z,26.10
2019-06-27T17:33:41.383Z,25.90
2019-06-27T17:38:37.898Z,25.50
2019-06-27T17:41:06.441Z,25.40
2019-06-27T17:43:34.839Z,25.50
2019-06-27T17:46:04.021Z,25.40
2019-06-27T17:48:32.450Z,25.50
2019-06-27T17:51:00.855Z,25.30
2019-06-27T17:55:57.375Z,24.60
2019-06-27T17:58:25.757Z,24.60
2019-06-27T18:00:54.179Z,24.60
2019-06-27T18:03:22.595Z,24.40
2019-06-27T18:05:50.996Z,24.50
2019-06-27T18:08:19.416Z,24.40
2019-06-27T18:10:47.927Z,24.40
2019-06-27T18:13:16.326Z,24.40
2019-06-27T18:15:44.727Z,24.40
2019-06-27T18:18:13.467Z,24.20
2019-06-27T18:20:41.870Z,24.00
2019-06-27T18:23:10.343Z,24.10
2019-06-27T18:25:39.115Z,24.00
2019-06-27T18:28:08.011Z,23.70
2019-06-27T18:30:36.410Z,23.50
2019-06-27T18:33:05.199Z,23.60
2019-06-27T18:35:33.975Z,23.50
2019-06-27T18:38:02.378Z,23.40
2019-06-27T18:40:31.167Z,23.40
2019-06-27T18:42:59.560Z,23.40
2019-06-27T18:45:27.976Z,23.30
2019-06-27T18:47:56.445Z,23.30
2019-06-27T18:50:24.924Z,23.30
2019-06-27T18:52:53.322Z,23.30
2019-06-27T18:55:21.803Z,23.10
2019-06-27T19:00:18.728Z,22.90
2019-06-27T19:02:47.918Z,22.80
2019-06-27T19:05:16.735Z,22.70
2019-06-27T19:07:46.328Z,22.50
2019-06-27T19:10:15.060Z,22.60
2019-06-27T19:12:43.539Z,22.50
2019-06-27T19:15:12.278Z,22.50
2019-06-27T19:17:40.709Z,22.30
2019-06-27T19:20:26.071Z,22.00
2019-06-27T19:23:11.509Z,21.80
2019-06-27T19:25:41.640Z,21.60
2019-06-27T19:28:12.970Z,21.40
2019-06-27T19:30:45.689Z,21.30
2019-06-27T19:33:18.565Z,21.20
2019-06-27T19:35:48.541Z,21.10
2019-06-27T19:38:17.832Z,21.00
2019-06-27T19:41:03.394Z,20.90
2019-06-27T19:43:31.828Z,20.80
2019-06-27T19:46:04.127Z,20.70
2019-06-27T19:48:37.361Z,20.60
2019-06-27T19:51:10.971Z,20.50
2019-06-27T19:53:42.824Z,20.50
2019-06-27T19:56:18.438Z,20.40
2019-06-27T19:58:48.293Z,20.30
2019-06-27T20:01:19.858Z,20.10
2019-06-27T20:03:52.348Z,20.00
2019-06-27T20:06:25.008Z,19.90
2019-06-27T20:08:53.457Z,19.90
2019-06-27T20:11:22.080Z,19.90
2019-06-27T20:13:50.490Z,19.80
2019-06-27T20:16:18.882Z,19.70
2019-06-27T20:18:47.303Z,19.60
2019-06-27T20:21:15.707Z,19.70
2019-06-27T20:23:44.401Z,19.60
2019-06-27T20:26:12.791Z,19.60
2019-06-27T20:28:41.270Z,19.50
2019-06-27T20:31:09.670Z,19.50
2019-06-27T20:33:38.075Z,19.40
2019-06-27T20:36:06.474Z,19.40
2019-06-27T20:38:35.558Z,19.30
2019-06-27T20:41:04.058Z,19.20
2019-06-27T20:43:32.463Z,19.10
2019-06-27T20:46:00.874Z,19.20
2019-06-27T20:48:29.271Z,19.10
2019-06-27T20:50:57.691Z,19.10
2019-06-27T20:53:26.431Z,19.10
2019-06-27T20:55:54.838Z,18.90
2019-06-27T20:58:23.251Z,18.80
2019-06-27T21:00:51.650Z,18.90
2019-06-27T21:03:20.054Z,18.90
2019-06-27T21:08:16.538Z,18.80
2019-06-27T21:10:44.942Z,18.70
2019-06-27T21:13:13.429Z,18.80
2019-06-27T21:15:41.823Z,18.50
2019-06-27T21:18:10.223Z,18.40
2019-06-27T21:20:38.635Z,18.30
2019-06-27T21:23:07.042Z,18.30
2019-06-27T21:25:35.439Z,18.20
2019-06-27T21:28:03.860Z,18.20
2019-06-27T21:30:32.265Z,18.10
2019-06-27T21:33:00.655Z,18.00
2019-06-27T21:35:29.099Z,18.00
2019-06-27T21:37:57.517Z,17.90
2019-06-27T21:40:25.911Z,17.70
2019-06-27T21:42:54.326Z,17.70
2019-06-27T21:45:22.799Z,17.60
2019-06-27T21:47:51.203Z,17.60
2019-06-27T21:50:20.379Z,17.50
2019-06-27T21:52:48.778Z,17.40
2019-06-27T21:55:17.181Z,17.40
2019-06-27T21:57:45.594Z,17.40
2019-06-27T22:00:14.848Z,17.30
2019-06-27T22:02:43.823Z,17.20
2019-06-27T22:05:13.707Z,17.10
2019-06-27T22:07:42.091Z,16.90
2019-06-27T22:10:11.034Z,16.90
2019-06-27T22:12:39.535Z,16.80
2019-06-27T22:15:09.279Z,16.80
2019-06-27T22:20:15.079Z,16.80
2019-06-27T22:22:37.302Z,16.70
2019-06-27T22:25:06.947Z,16.70
2019-06-27T22:27:35.391Z,16.70
2019-06-27T22:30:05.607Z,16.70
2019-06-27T22:32:34.099Z,16.60
2019-06-27T22:35:02.496Z,16.60
2019-06-27T22:37:30.619Z,16.60
2019-06-27T22:40:16.931Z,16.60
2019-06-27T22:43:04.427Z,16.50
2019-06-27T22:45:50.783Z,16.50
2019-06-27T22:48:20.360Z,16.50
2019-06-27T22:50:51.138Z,16.40
2019-06-27T22:53:37.414Z,16.50
2019-06-27T22:56:05.946Z,16.40
2019-06-27T22:58:34.415Z,16.20
2019-06-27T23:01:04.529Z,16.20
2019-06-27T23:03:32.932Z,16.10
2019-06-27T23:06:01.492Z,16.10
2019-06-27T23:08:30.123Z,16.10
2019-06-27T23:10:58.597Z,16.10
2019-06-27T23:13:27.031Z,16.00
2019-06-27T23:15:55.509Z,16.00
2019-06-27T23:18:23.979Z,16.10
2019-06-27T23:20:52.398Z,16.00
2019-06-27T23:23:20.791Z,15.90
2019-06-27T23:28:17.246Z,15.70
2019-06-27T23:30:45.655Z,15.80
2019-06-27T23:33:14.059Z,15.80
2019-06-27T23:36:01.819Z,15.60
2019-06-27T23:38:30.237Z,15.60
2019-06-27T23:40:58.623Z,15.50
2019-06-27T23:43:27.059Z,15.60
2019-06-27T23:45:55.485Z,15.60
2019-06-27T23:48:23.864Z,15.60
2019-06-27T23:50:52.272Z,15.80
2019-06-27T23:53:20.672Z,15.80
2019-06-27T23:55:49.146Z,15.80
2019-06-27T23:58:17.554Z,15.80
